Trois-Rivières Airport
CYRQ : now visible

Airfield :







YOU CAN JOIN US ON...

 
LOGIN :

Register | Disclaimer

   EN    FR    IT 

 









Legend :    VFR   Marginal VFR   IFR   Intensive IFR   Very Intensive IFR
Visi :
Ceiling :
>= 8 km
>= 3000ft
5 to 8 km
1000 to 3000 ft
1500m to 5 km
500 to 1000 ft
800 to 1500m
200 to 500 ft
< 800m
< 200 ft
Symbols :   Thunderstorms  Fog  Heavy snow  Heavy precipitations  Wind > 20 kt







- Airport Elevation : 199 ft
- IATA code : YRQ


CYRQ - Trois-Rivières

CURRENT METAR :
  • 211000Z AUTO 28011G17KT 220V310 9SM OVC031 08/03 A2972 RMK SLP066

EXPIRED METARs :
  • 210900Z AUTO 27010KT 240V300 9SM FEW029 OVC100 08/04 A2968 RMK SLP052
  • 210800Z AUTO 27003KT 240V300 9SM SCT029 OVC065 09/05 A2967 RMK SLP051

TAF TAF CYRQ
Valid from the 21 at 08:00 until the 21 at 20:00 UTC


210738Z 2108/2120 28005KT P6SM BKN030 OVC100
TEMPO 2108/2109 P6SM -SHRA BKN020 OVC100
FM210900 27008KT P6SM SCT030
TEMPO 2109/2112 BKN030
FM211200 27010G20KT P6SM BKN030 OVC080
TEMPO 2112/2118 P6SM -SHRA
BECMG 2112/2114 29018G28KT
FM211800 32018G32KT P6SM BKN040 OVC080 RMK FCST BASED ON AUTO OBS. NXT FCST BY 211400Z
CZUL FIR / North America



MET'MAP, your aeronautical weather chart ! - Copyright ORBIFLY December 2007 - Disclaimer

ORBIFLY MET'MAP TEAM :

Programming & Development : Alexandra Zaïnal
Concept & Development : Baudouin d'Aumeries
Co-Development & Prog : Marc-Olivier Méhu
Technical & hardware support : Manuel Goepfert

Contact : metmap@orbifly.com




SOURCES & CREDITS :

   NOAA